Nearby METAR Reports

 

KMQS - Coatesville, Pennsylvania, USA
Distance from station: NW 12mi, 19km
Updated: Tue, 07-Apr-2020 5:55pm EDT
Clear
Clear
 Wind from varies
Wind: varies 6 mph , 9 km/h
Temperature: 64°F , 18°C
Dew Point: 50°F , 10°C
Humidity: 60%
Barometer: 29.76 inHg , 1007.8 hPa
Clouds: Clear
Visibility: 10 miles , 16 km
2020/04/07 21:55 KMQS 072155Z AUTO VRB05KT 10SM CLR 18/10 A2976 RMK AO2
KOQN - West Chester, Pennsylvania, USA
Distance from station: NE 13mi, 21km
Updated: Tue, 07-Apr-2020 5:55pm EDT
Clear
Clear
 Wind from SSE
Wind: SSE 5 mph , 7 km/h
Temperature: 64°F , 18°C
Dew Point: 48°F , 9°C
Humidity: 56%
Barometer: 29.75 inHg , 1007.5 hPa
Clouds: Clear
Visibility: 10 miles , 16 km
2020/04/07 21:55 KOQN 072155Z AUTO 16004KT 10SM CLR 18/09 A2975 RMK AO2
 
KILG - Wilmington, Delaware, USA
Distance from station: SSE 14mi, 23km
Updated: Tue, 07-Apr-2020 5:51pm EDT
Partly cloudy
Partly cloudy
 Wind from SSE
Wind: SSE 14 mph , 22 km/h
Temperature: 59°F , 15°C
Dew Point: 45°F , 7°C
Humidity: 59%
Barometer: 29.77 inHg , 1008.1 hPa
Clouds: Partly cloudy
Visibility: 10 miles , 16 km
Cloud details: Partly cloudy 9000 ft
2020/04/07 21:51 KILG 072151Z 16012KT 10SM SCT090 15/07 A2977 RMK AO2 SLP081 T01500072
KPHL - Philadelphia, Pennsylvania, USA
Distance from station: E 27mi, 43km
Updated: Tue, 07-Apr-2020 5:54pm EDT
Mostly cloudy
Mostly cloudy
 Wind from WSW
Wind: WSW 10 mph , 17 km/h
Temperature: 66°F , 19°C
Dew Point: 46°F , 8°C
Humidity: 49%
Barometer: 29.76 inHg , 1007.8 hPa
Clouds: Mostly cloudy
Visibility: 10 miles , 16 km
Cloud details: Few Clouds 9500 ft
Partly cloudy 20000 ft
Mostly cloudy 25000 ft
2020/04/07 21:54 KPHL 072154Z 25009KT 10SM FEW095 SCT200 BKN250 19/08 A2976 RMK AO2 SLP077 T01890078
 
KPTW - Pottstown, Pennsylvania, USA
Distance from station: NNE 29mi, 47km
Updated: Tue, 07-Apr-2020 5:54pm EDT
Clear
Clear
 Wind from varies
Wind: varies 6 mph , 9 km/h
Temperature: 66°F , 19°C
Dew Point: 43°F , 6°C
Humidity: 43%
Barometer: 29.75 inHg , 1007.5 hPa
Clouds: Clear
Visibility: 7 miles , 11 km
2020/04/07 21:54 KPTW 072154Z AUTO VRB05KT 7SM CLR 19/06 A2975 RMK AO2 SLP070 T01890056
KLOM - Philly Wings F, Pennsylvania, USA
Distance from station: NE 32mi, 52km
Updated: Tue, 07-Apr-2020 5:55pm EDT
Clear
Clear
 Wind from S
Wind: S 8 mph , 13 km/h
Temperature: 64°F , 18°C
Dew Point: 48°F , 9°C
Humidity: 56%
Barometer: 29.75 inHg , 1007.5 hPa
Clouds: Clear
Visibility: 10 miles , 16 km
2020/04/07 21:55 KLOM 072155Z AUTO 18007KT 10SM CLR 18/09 A2975 RMK AO2 T01830093
 
KAPG - Aberdeen/Phillip, Maryland, USA
Distance from station: SW 34mi, 55km
Updated: Tue, 07-Apr-2020 5:58pm EDT
Few Clouds
Few Clouds
 Wind from S
Wind: S 7 mph , 11 km/h
Temperature: 64°F , 18°C
Dew Point: 54°F , 12°C
Humidity: 68%
Barometer: 29.77 inHg , 1008.1 hPa
Clouds: Few Clouds
Visibility: 10 miles , 16 km
Cloud details: Few Clouds 9500 ft
2020/04/07 21:58 KAPG 072158Z AUTO 19006KT 10SM FEW095 18/12 A2977 RMK AO2 SLP084 T01810117 PNO TSNO $
KLNS - Lancaster, Pennsylvania, USA
Distance from station: WNW 35mi, 57km
Updated: Tue, 07-Apr-2020 5:53pm EDT
Few Clouds
Few Clouds
 Wind from SW
Wind: SW 10 mph , 17 km/h
Temperature: 68°F , 20°C
Dew Point: 45°F , 7°C
Humidity: 43%
Barometer: 29.73 inHg , 1006.8 hPa
Clouds: Few Clouds
Visibility: 10 miles , 16 km
Cloud details: Few Clouds 11000 ft
2020/04/07 21:53 KLNS 072153Z 23009KT 10SM FEW110 20/07 A2973 RMK AO2 SLP067 T02000072
 
KRDG - Reading, Pennsylvania, USA
Distance from station: NNW 38mi, 62km
Updated: Tue, 07-Apr-2020 5:54pm EDT
Clear
Clear
 Wind from SSW
Wind: SSW 10 mph , 17 km/h
Temperature: 68°F , 20°C
Dew Point: 43°F , 6°C
Humidity: 40%
Barometer: 29.72 inHg , 1006.4 hPa
Clouds: Clear
Visibility: 10 miles , 16 km
2020/04/07 21:54 KRDG 072154Z 21009KT 10SM CLR 20/06 A2972 RMK AO2 SLP070 T02000056
KPNE - Philadelphia/Ne, Pennsylvania, USA
Distance from station: ENE 42mi, 67km
Updated: Tue, 07-Apr-2020 5:54pm EDT
Partly cloudy
Partly cloudy
 Wind from W
Wind: W 10 mph , 17 km/h
Temperature: 66°F , 19°C
Dew Point: 46°F , 8°C
Humidity: 49%
Barometer: 29.77 inHg , 1008.1 hPa
Clouds: Partly cloudy
Visibility: 10 miles , 16 km
Cloud details: Partly cloudy 8000 ft
2020/04/07 21:54 KPNE 072154Z 26009KT 10SM SCT080 19/08 A2977 RMK AO2 SLP079 T01940083
 
KCKZ - Perkasie, Pennsylvania, USA
Distance from station: NNE 45mi, 72km
Updated: Tue, 07-Apr-2020 5:55pm EDT
Clear
Clear
 Wind from SW
Wind: SW 7 mph , 11 km/h
Temperature: 64°F , 18°C
Dew Point: 41°F , 5°C
Humidity: 43%
Barometer: 29.75 inHg , 1007.5 hPa
Clouds: Clear
Visibility: 10 miles , 16 km
2020/04/07 21:55 KCKZ 072155Z AUTO 23006KT 10SM CLR 18/05 A2975 RMK AO2
KUKT - Quakertown Arp, Pennsylvania, USA
Distance from station: NNE 45mi, 73km
Updated: Tue, 07-Apr-2020 5:55pm EDT
Clear
Clear
 Wind from SSW
Wind: SSW 7 mph , 11 km/h, Gust: 14 mph , 22 km/h
Temperature: 64°F , 18°C
Dew Point: 41°F , 5°C
Humidity: 43%
Barometer: 29.74 inHg , 1007.1 hPa
Clouds: Clear
Visibility: 10 miles , 16 km
2020/04/07 21:55 KUKT 072155Z AUTO 21006G12KT 10SM CLR 18/05 A2974 RMK A01
 
KDYL - Doylestown, Pennsylvania, USA
Distance from station: NE 47mi, 76km
Updated: Tue, 07-Apr-2020 5:54pm EDT
Clear
Clear
 Wind from WSW
Wind: WSW 9 mph , 15 km/h, Gust: 17 mph , 28 km/h
Temperature: 66°F , 19°C
Dew Point: 41°F , 5°C
Humidity: 40%
Barometer: 29.74 inHg , 1007.1 hPa
Clouds: Clear
Visibility: 10 miles , 16 km
2020/04/07 21:54 KDYL 072154Z AUTO 24008G15KT 10SM CLR 19/05 A2974 RMK AO2 SLP069 T01890050
KMIV - Millville, New Jersey, USA
Distance from station: SE 48mi, 77km
Updated: Tue, 07-Apr-2020 5:54pm EDT
Overcast
Overcast
 Wind from varies
Wind: varies 5 mph , 7 km/h
Temperature: 61°F , 16°C
Dew Point: 45°F , 7°C
Humidity: 55%
Barometer: 29.78 inHg , 1008.5 hPa
Clouds: Overcast
Visibility: 10 miles , 16 km
Cloud details: Overcast 9500 ft
2020/04/07 21:54 KMIV 072154Z AUTO VRB04KT 10SM OVC095 16/07 A2978 RMK AO2 SLP083 T01560067
 
KVAY - Mount Holly, New Jersey, USA
Distance from station: E 48mi, 78km
Updated: Tue, 07-Apr-2020 5:54pm EDT
Few Clouds
Few Clouds
 Wind from varies
Wind: varies 3 mph , 6 km/h
Temperature: 64°F , 18°C
Dew Point: 45°F , 7°C
Humidity: 49%
Barometer: 29.76 inHg , 1007.8 hPa
Clouds: Few Clouds
Visibility: 10 miles , 16 km
Cloud details: Few Clouds 9000 ft
2020/04/07 21:54 KVAY 072154Z AUTO VRB03KT 10SM FEW090 18/07 A2976 RMK AO2 SLP076 T01830072